Robbins, Illinois
Current Conditions -  °F | °C
As of 2:53 AM on Sunday 26 Oct 2014 (Local Time) from KMDW Reporting Station
Clear Clear  
Wind Chill: 50°   Ceiling: Unl
Heat Index: 50°   Visibility: 10mi
Dew Point: 30°   Wind: 7mph
Humidity: 46%   Direction: 300°WNW
Pressure: 30"   Gusts: NA
Location:  41.64°N, 87.7°W
Report Text: KMDW 260753Z 30006KT 10SM CLR 10/M01 A3000 RMK AO2 SLP155 T01001011
Loading
Personal Weather Stations






























Interactive Weather Map
Tropical Storm Tracking
New forecast layout! Learn more

10-Day Weather Forecast

Advertisements
Track Severe Weather on mobile